sensor_id;sensor_type;location;lat;lon;timestamp;P1;durP1;ratioP1;P2;durP2;ratioP2
5279;SDS011;2663;53.588;10.010;2023-01-25T00:00:29;20.23;;;13.30;;
5279;SDS011;2663;53.588;10.010;2023-01-25T00:02:56;26.70;;;15.10;;
5279;SDS011;2663;53.588;10.010;2023-01-25T00:05:23;25.57;;;14.37;;
5279;SDS011;2663;53.588;10.010;2023-01-25T00:07:50;20.30;;;13.20;;
5279;SDS011;2663;53.588;10.010;2023-01-25T00:10:16;32.70;;;15.57;;
5279;SDS011;2663;53.588;10.010;2023-01-25T00:12:43;25.60;;;14.87;;
5279;SDS011;2663;53.588;10.010;2023-01-25T00:15:10;26.87;;;15.50;;
5279;SDS011;2663;53.588;10.010;2023-01-25T00:17:37;24.90;;;14.37;;
5279;SDS011;2663;53.588;10.010;2023-01-25T00:20:03;25.80;;;15.30;;
5279;SDS011;2663;53.588;10.010;2023-01-25T00:22:30;29.00;;;14.77;;
5279;SDS011;2663;53.588;10.010;2023-01-25T00:24:57;26.27;;;14.73;;
5279;SDS011;2663;53.588;10.010;2023-01-25T00:27:24;30.73;;;15.93;;
5279;SDS011;2663;53.588;10.010;2023-01-25T00:29:51;27.93;;;14.57;;
5279;SDS011;2663;53.588;10.010;2023-01-25T00:32:27;30.37;;;16.37;;
5279;SDS011;2663;53.588;10.010;2023-01-25T00:34:58;26.40;;;15.00;;
5279;SDS011;2663;53.588;10.010;2023-01-25T00:37:39;28.10;;;16.10;;
5279;SDS011;2663;53.588;10.010;2023-01-25T00:40:09;30.83;;;16.27;;
5279;SDS011;2663;53.588;10.010;2023-01-25T00:42:37;27.17;;;15.33;;
5279;SDS011;2663;53.588;10.010;2023-01-25T00:45:05;32.83;;;17.40;;
5279;SDS011;2663;53.588;10.010;2023-01-25T00:47:33;32.70;;;17.50;;
5279;SDS011;2663;53.588;10.010;2023-01-25T00:49:59;37.17;;;20.27;;
5279;SDS011;2663;53.588;10.010;2023-01-25T00:52:26;28.33;;;17.27;;
5279;SDS011;2663;53.588;10.010;2023-01-25T00:54:53;36.83;;;18.33;;
5279;SDS011;2663;53.588;10.010;2023-01-25T00:57:20;26.47;;;15.30;;
5279;SDS011;2663;53.588;10.010;2023-01-25T00:59:47;27.37;;;14.53;;
5279;SDS011;2663;53.588;10.010;2023-01-25T01:02:13;30.33;;;16.27;;
5279;SDS011;2663;53.588;10.010;2023-01-25T01:04:40;25.37;;;13.67;;
5279;SDS011;2663;53.588;10.010;2023-01-25T01:07:07;24.57;;;13.37;;
5279;SDS011;2663;53.588;10.010;2023-01-25T01:09:33;28.30;;;15.40;;
5279;SDS011;2663;53.588;10.010;2023-01-25T01:12:00;33.60;;;15.90;;
5279;SDS011;2663;53.588;10.010;2023-01-25T01:14:27;23.93;;;13.70;;
5279;SDS011;2663;53.588;10.010;2023-01-25T01:16:53;25.20;;;14.83;;
5279;SDS011;2663;53.588;10.010;2023-01-25T01:19:23;25.07;;;13.77;;
5279;SDS011;2663;53.588;10.010;2023-01-25T01:21:49;27.40;;;15.60;;
5279;SDS011;2663;53.588;10.010;2023-01-25T01:24:16;28.43;;;16.40;;
5279;SDS011;2663;53.588;10.010;2023-01-25T01:26:43;26.17;;;15.80;;
5279;SDS011;2663;53.588;10.010;2023-01-25T01:29:10;26.20;;;14.23;;
5279;SDS011;2663;53.588;10.010;2023-01-25T01:31:36;25.77;;;14.20;;
5279;SDS011;2663;53.588;10.010;2023-01-25T01:34:03;25.80;;;14.80;;
5279;SDS011;2663;53.588;10.010;2023-01-25T01:36:30;30.10;;;15.47;;
5279;SDS011;2663;53.588;10.010;2023-01-25T01:38:57;23.77;;;14.63;;
5279;SDS011;2663;53.588;10.010;2023-01-25T01:41:25;27.70;;;15.57;;
5279;SDS011;2663;53.588;10.010;2023-01-25T01:43:51;24.60;;;12.87;;
5279;SDS011;2663;53.588;10.010;2023-01-25T01:46:23;26.20;;;14.67;;
5279;SDS011;2663;53.588;10.010;2023-01-25T01:54:10;24.03;;;13.10;;
5279;SDS011;2663;53.588;10.010;2023-01-25T01:57:08;20.20;;;13.07;;
5279;SDS011;2663;53.588;10.010;2023-01-25T01:59:51;23.30;;;12.33;;
5279;SDS011;2663;53.588;10.010;2023-01-25T02:02:47;24.03;;;12.73;;
5279;SDS011;2663;53.588;10.010;2023-01-25T02:05:24;19.47;;;12.57;;
5279;SDS011;2663;53.588;10.010;2023-01-25T02:08:05;18.73;;;11.17;;
5279;SDS011;2663;53.588;10.010;2023-01-25T02:10:35;23.07;;;13.20;;
5279;SDS011;2663;53.588;10.010;2023-01-25T02:13:03;23.03;;;12.50;;
5279;SDS011;2663;53.588;10.010;2023-01-25T02:15:36;21.27;;;11.30;;
5279;SDS011;2663;53.588;10.010;2023-01-25T02:18:08;24.23;;;12.57;;
5279;SDS011;2663;53.588;10.010;2023-01-25T02:26:02;22.63;;;11.40;;
5279;SDS011;2663;53.588;10.010;2023-01-25T02:28:35;19.30;;;12.13;;
5279;SDS011;2663;53.588;10.010;2023-01-25T02:31:06;16.80;;;10.20;;
5279;SDS011;2663;53.588;10.010;2023-01-25T02:33:33;22.73;;;11.57;;
5279;SDS011;2663;53.588;10.010;2023-01-25T02:38:40;21.67;;;12.07;;
5279;SDS011;2663;53.588;10.010;2023-01-25T02:41:16;20.90;;;10.50;;
5279;SDS011;2663;53.588;10.010;2023-01-25T02:43:48;20.47;;;11.00;;
5279;SDS011;2663;53.588;10.010;2023-01-25T02:46:26;23.40;;;12.50;;
5279;SDS011;2663;53.588;10.010;2023-01-25T02:48:57;25.93;;;11.90;;
5279;SDS011;2663;53.588;10.010;2023-01-25T02:51:26;25.40;;;10.00;;
5279;SDS011;2663;53.588;10.010;2023-01-25T02:53:54;18.33;;;9.47;;
5279;SDS011;2663;53.588;10.010;2023-01-25T02:56:21;23.07;;;11.43;;
5279;SDS011;2663;53.588;10.010;2023-01-25T02:58:48;23.37;;;11.50;;
5279;SDS011;2663;53.588;10.010;2023-01-25T03:01:15;19.07;;;9.60;;
5279;SDS011;2663;53.588;10.010;2023-01-25T03:03:42;17.27;;;10.23;;
5279;SDS011;2663;53.588;10.010;2023-01-25T03:06:09;20.10;;;9.10;;
5279;SDS011;2663;53.588;10.010;2023-01-25T03:08:36;17.63;;;10.27;;
5279;SDS011;2663;53.588;10.010;2023-01-25T03:11:03;19.93;;;9.70;;
5279;SDS011;2663;53.588;10.010;2023-01-25T03:13:32;18.60;;;10.20;;
5279;SDS011;2663;53.588;10.010;2023-01-25T03:16:00;19.73;;;9.87;;
5279;SDS011;2663;53.588;10.010;2023-01-25T03:18:32;26.13;;;12.17;;
5279;SDS011;2663;53.588;10.010;2023-01-25T03:21:03;19.37;;;10.03;;
5279;SDS011;2663;53.588;10.010;2023-01-25T03:23:31;19.07;;;9.80;;
5279;SDS011;2663;53.588;10.010;2023-01-25T03:26:08;25.30;;;10.47;;
5279;SDS011;2663;53.588;10.010;2023-01-25T03:28:36;21.60;;;11.30;;
5279;SDS011;2663;53.588;10.010;2023-01-25T03:31:03;18.00;;;10.57;;
5279;SDS011;2663;53.588;10.010;2023-01-25T03:33:31;18.50;;;10.90;;
5279;SDS011;2663;53.588;10.010;2023-01-25T03:35:58;32.27;;;12.13;;
5279;SDS011;2663;53.588;10.010;2023-01-25T03:38:25;21.33;;;11.23;;
5279;SDS011;2663;53.588;10.010;2023-01-25T03:40:51;26.20;;;12.43;;
5279;SDS011;2663;53.588;10.010;2023-01-25T03:43:18;21.80;;;11.33;;
5279;SDS011;2663;53.588;10.010;2023-01-25T03:45:50;26.30;;;11.23;;
5279;SDS011;2663;53.588;10.010;2023-01-25T03:48:20;21.80;;;10.97;;
5279;SDS011;2663;53.588;10.010;2023-01-25T03:50:51;21.13;;;11.43;;
5279;SDS011;2663;53.588;10.010;2023-01-25T03:53:19;22.50;;;12.00;;
5279;SDS011;2663;53.588;10.010;2023-01-25T03:56:01;25.73;;;12.33;;
5279;SDS011;2663;53.588;10.010;2023-01-25T03:58:30;25.27;;;11.30;;
5279;SDS011;2663;53.588;10.010;2023-01-25T04:00:57;23.57;;;10.80;;
5279;SDS011;2663;53.588;10.010;2023-01-25T04:03:25;26.17;;;12.37;;
5279;SDS011;2663;53.588;10.010;2023-01-25T04:05:55;23.27;;;13.20;;
5279;SDS011;2663;53.588;10.010;2023-01-25T04:08:23;28.80;;;14.13;;
5279;SDS011;2663;53.588;10.010;2023-01-25T04:10:51;27.07;;;11.87;;
5279;SDS011;2663;53.588;10.010;2023-01-25T04:13:19;27.43;;;13.90;;
5279;SDS011;2663;53.588;10.010;2023-01-25T04:15:47;24.70;;;12.50;;
5279;SDS011;2663;53.588;10.010;2023-01-25T04:18:14;30.17;;;14.00;;
5279;SDS011;2663;53.588;10.010;2023-01-25T04:20:41;29.10;;;13.53;;
5279;SDS011;2663;53.588;10.010;2023-01-25T04:23:08;32.57;;;16.00;;
5279;SDS011;2663;53.588;10.010;2023-01-25T04:25:35;27.60;;;13.57;;
5279;SDS011;2663;53.588;10.010;2023-01-25T04:28:03;30.13;;;14.00;;
5279;SDS011;2663;53.588;10.010;2023-01-25T04:30:30;24.00;;;12.40;;
5279;SDS011;2663;53.588;10.010;2023-01-25T04:33:00;30.17;;;13.80;;
5279;SDS011;2663;53.588;10.010;2023-01-25T04:35:30;30.37;;;14.40;;
5279;SDS011;2663;53.588;10.010;2023-01-25T04:37:57;29.23;;;14.57;;
5279;SDS011;2663;53.588;10.010;2023-01-25T04:40:25;23.20;;;12.47;;
5279;SDS011;2663;53.588;10.010;2023-01-25T04:42:52;31.67;;;14.30;;
5279;SDS011;2663;53.588;10.010;2023-01-25T04:45:18;33.47;;;14.40;;
5279;SDS011;2663;53.588;10.010;2023-01-25T04:47:45;29.00;;;14.30;;
5279;SDS011;2663;53.588;10.010;2023-01-25T04:50:12;33.00;;;14.80;;
5279;SDS011;2663;53.588;10.010;2023-01-25T04:52:38;25.90;;;14.20;;
5279;SDS011;2663;53.588;10.010;2023-01-25T04:55:05;29.80;;;13.87;;
5279;SDS011;2663;53.588;10.010;2023-01-25T04:57:33;26.23;;;13.57;;
5279;SDS011;2663;53.588;10.010;2023-01-25T04:59:59;19.53;;;10.80;;
5279;SDS011;2663;53.588;10.010;2023-01-25T05:02:26;22.80;;;13.17;;
5279;SDS011;2663;53.588;10.010;2023-01-25T05:04:53;30.07;;;14.37;;
5279;SDS011;2663;53.588;10.010;2023-01-25T05:07:19;26.33;;;13.00;;
5279;SDS011;2663;53.588;10.010;2023-01-25T05:09:46;29.67;;;13.73;;
5279;SDS011;2663;53.588;10.010;2023-01-25T05:12:12;26.50;;;13.67;;
5279;SDS011;2663;53.588;10.010;2023-01-25T05:14:39;22.07;;;12.17;;
5279;SDS011;2663;53.588;10.010;2023-01-25T05:17:06;21.27;;;12.07;;
5279;SDS011;2663;53.588;10.010;2023-01-25T05:19:33;22.50;;;11.97;;
5279;SDS011;2663;53.588;10.010;2023-01-25T05:22:01;20.70;;;12.60;;
5279;SDS011;2663;53.588;10.010;2023-01-25T05:24:33;18.97;;;11.17;;
5279;SDS011;2663;53.588;10.010;2023-01-25T05:27:01;20.83;;;12.10;;
5279;SDS011;2663;53.588;10.010;2023-01-25T05:29:29;18.80;;;11.60;;
5279;SDS011;2663;53.588;10.010;2023-01-25T05:32:01;18.63;;;11.30;;
5279;SDS011;2663;53.588;10.010;2023-01-25T05:34:33;14.20;;;9.30;;
5279;SDS011;2663;53.588;10.010;2023-01-25T05:37:02;20.17;;;11.60;;
5279;SDS011;2663;53.588;10.010;2023-01-25T05:39:30;19.43;;;11.40;;
5279;SDS011;2663;53.588;10.010;2023-01-25T05:41:57;20.80;;;12.00;;
5279;SDS011;2663;53.588;10.010;2023-01-25T05:44:24;18.43;;;11.67;;
5279;SDS011;2663;53.588;10.010;2023-01-25T05:46:51;19.47;;;11.90;;
5279;SDS011;2663;53.588;10.010;2023-01-25T05:49:18;19.23;;;12.33;;
5279;SDS011;2663;53.588;10.010;2023-01-25T05:51:45;24.03;;;12.43;;
5279;SDS011;2663;53.588;10.010;2023-01-25T05:54:13;22.27;;;12.70;;
5279;SDS011;2663;53.588;10.010;2023-01-25T05:56:41;21.77;;;13.20;;
5279;SDS011;2663;53.588;10.010;2023-01-25T05:59:09;25.77;;;13.10;;
5279;SDS011;2663;53.588;10.010;2023-01-25T06:01:37;22.13;;;12.87;;
5279;SDS011;2663;53.588;10.010;2023-01-25T06:04:04;25.97;;;13.00;;
5279;SDS011;2663;53.588;10.010;2023-01-25T06:06:31;21.73;;;10.77;;
5279;SDS011;2663;53.588;10.010;2023-01-25T06:08:58;22.00;;;12.10;;
5279;SDS011;2663;53.588;10.010;2023-01-25T06:11:25;16.83;;;10.87;;
5279;SDS011;2663;53.588;10.010;2023-01-25T06:13:52;23.77;;;13.53;;
5279;SDS011;2663;53.588;10.010;2023-01-25T06:16:19;26.90;;;13.97;;
5279;SDS011;2663;53.588;10.010;2023-01-25T06:18:46;21.80;;;13.00;;
5279;SDS011;2663;53.588;10.010;2023-01-25T06:21:12;24.00;;;13.37;;
5279;SDS011;2663;53.588;10.010;2023-01-25T06:23:39;23.87;;;14.00;;
5279;SDS011;2663;53.588;10.010;2023-01-25T06:26:10;28.50;;;13.87;;
5279;SDS011;2663;53.588;10.010;2023-01-25T06:28:38;21.73;;;13.07;;
5279;SDS011;2663;53.588;10.010;2023-01-25T06:31:06;18.70;;;12.33;;
5279;SDS011;2663;53.588;10.010;2023-01-25T06:33:37;30.90;;;13.20;;
5279;SDS011;2663;53.588;10.010;2023-01-25T06:36:12;28.47;;;14.37;;
5279;SDS011;2663;53.588;10.010;2023-01-25T06:38:40;29.50;;;15.27;;
5279;SDS011;2663;53.588;10.010;2023-01-25T06:41:09;22.30;;;12.50;;
5279;SDS011;2663;53.588;10.010;2023-01-25T06:43:37;26.67;;;13.70;;
5279;SDS011;2663;53.588;10.010;2023-01-25T06:46:05;23.13;;;13.17;;
5279;SDS011;2663;53.588;10.010;2023-01-25T06:48:33;21.97;;;13.10;;
5279;SDS011;2663;53.588;10.010;2023-01-25T06:51:01;31.87;;;15.07;;
5279;SDS011;2663;53.588;10.010;2023-01-25T06:53:30;29.40;;;14.87;;
5279;SDS011;2663;53.588;10.010;2023-01-25T06:55:59;27.87;;;13.50;;
5279;SDS011;2663;53.588;10.010;2023-01-25T06:58:27;22.67;;;14.00;;
5279;SDS011;2663;53.588;10.010;2023-01-25T07:00:58;25.10;;;13.27;;
5279;SDS011;2663;53.588;10.010;2023-01-25T07:03:49;29.30;;;12.63;;
5279;SDS011;2663;53.588;10.010;2023-01-25T07:06:18;16.87;;;10.63;;
5279;SDS011;2663;53.588;10.010;2023-01-25T07:08:45;18.23;;;11.60;;
5279;SDS011;2663;53.588;10.010;2023-01-25T07:11:12;21.13;;;12.50;;
5279;SDS011;2663;53.588;10.010;2023-01-25T07:13:40;23.80;;;13.40;;
5279;SDS011;2663;53.588;10.010;2023-01-25T07:16:10;23.17;;;13.77;;
5279;SDS011;2663;53.588;10.010;2023-01-25T07:18:38;24.60;;;12.50;;
5279;SDS011;2663;53.588;10.010;2023-01-25T07:21:06;21.67;;;13.43;;
5279;SDS011;2663;53.588;10.010;2023-01-25T07:23:40;21.53;;;12.77;;
5279;SDS011;2663;53.588;10.010;2023-01-25T07:26:15;21.63;;;12.97;;
5279;SDS011;2663;53.588;10.010;2023-01-25T07:28:43;20.40;;;12.07;;
5279;SDS011;2663;53.588;10.010;2023-01-25T07:31:11;22.13;;;12.73;;
5279;SDS011;2663;53.588;10.010;2023-01-25T07:33:38;28.63;;;12.80;;
5279;SDS011;2663;53.588;10.010;2023-01-25T07:36:06;23.40;;;11.83;;
5279;SDS011;2663;53.588;10.010;2023-01-25T07:38:34;21.30;;;12.00;;
5279;SDS011;2663;53.588;10.010;2023-01-25T07:41:01;21.37;;;12.53;;
5279;SDS011;2663;53.588;10.010;2023-01-25T07:43:28;20.90;;;12.23;;
5279;SDS011;2663;53.588;10.010;2023-01-25T07:46:06;22.53;;;12.70;;
5279;SDS011;2663;53.588;10.010;2023-01-25T07:48:38;20.87;;;11.97;;
5279;SDS011;2663;53.588;10.010;2023-01-25T07:51:06;24.13;;;13.10;;
5279;SDS011;2663;53.588;10.010;2023-01-25T07:56:16;22.53;;;12.50;;
5279;SDS011;2663;53.588;10.010;2023-01-25T07:58:44;23.97;;;13.37;;
5279;SDS011;2663;53.588;10.010;2023-01-25T08:01:12;23.47;;;12.57;;
5279;SDS011;2663;53.588;10.010;2023-01-25T08:03:41;26.70;;;13.07;;
5279;SDS011;2663;53.588;10.010;2023-01-25T08:06:09;24.67;;;13.67;;
5279;SDS011;2663;53.588;10.010;2023-01-25T08:08:46;27.60;;;15.20;;
5279;SDS011;2663;53.588;10.010;2023-01-25T08:11:15;26.23;;;13.17;;
5279;SDS011;2663;53.588;10.010;2023-01-25T08:13:44;24.93;;;13.57;;
5279;SDS011;2663;53.588;10.010;2023-01-25T08:16:15;25.77;;;15.63;;
5279;SDS011;2663;53.588;10.010;2023-01-25T08:18:45;26.73;;;13.53;;
5279;SDS011;2663;53.588;10.010;2023-01-25T08:21:13;23.43;;;13.70;;
5279;SDS011;2663;53.588;10.010;2023-01-25T08:23:39;29.43;;;15.30;;
5279;SDS011;2663;53.588;10.010;2023-01-25T08:26:07;29.00;;;16.60;;
5279;SDS011;2663;53.588;10.010;2023-01-25T08:28:35;26.87;;;14.87;;
5279;SDS011;2663;53.588;10.010;2023-01-25T08:31:06;27.30;;;16.17;;
5279;SDS011;2663;53.588;10.010;2023-01-25T08:33:35;25.73;;;14.73;;
5279;SDS011;2663;53.588;10.010;2023-01-25T08:36:03;27.80;;;16.60;;
5279;SDS011;2663;53.588;10.010;2023-01-25T08:38:31;25.83;;;12.77;;
5279;SDS011;2663;53.588;10.010;2023-01-25T08:41:07;23.77;;;13.40;;
5279;SDS011;2663;53.588;10.010;2023-01-25T08:43:36;25.87;;;12.20;;
5279;SDS011;2663;53.588;10.010;2023-01-25T08:46:03;30.43;;;15.00;;
5279;SDS011;2663;53.588;10.010;2023-01-25T08:48:30;32.77;;;16.20;;
5279;SDS011;2663;53.588;10.010;2023-01-25T08:50:57;29.67;;;16.47;;
5279;SDS011;2663;53.588;10.010;2023-01-25T08:53:26;31.37;;;16.90;;
5279;SDS011;2663;53.588;10.010;2023-01-25T08:55:53;31.23;;;14.97;;
5279;SDS011;2663;53.588;10.010;2023-01-25T08:58:20;31.53;;;15.53;;
5279;SDS011;2663;53.588;10.010;2023-01-25T09:00:47;30.70;;;16.73;;
5279;SDS011;2663;53.588;10.010;2023-01-25T09:03:14;24.70;;;14.13;;
5279;SDS011;2663;53.588;10.010;2023-01-25T09:05:43;24.87;;;12.83;;
5279;SDS011;2663;53.588;10.010;2023-01-25T09:08:10;26.40;;;13.37;;
5279;SDS011;2663;53.588;10.010;2023-01-25T09:10:36;34.23;;;14.80;;
5279;SDS011;2663;53.588;10.010;2023-01-25T09:13:03;25.57;;;14.60;;
5279;SDS011;2663;53.588;10.010;2023-01-25T09:15:33;46.20;;;18.03;;
5279;SDS011;2663;53.588;10.010;2023-01-25T09:18:00;28.33;;;16.80;;
5279;SDS011;2663;53.588;10.010;2023-01-25T09:20:27;26.50;;;14.27;;
5279;SDS011;2663;53.588;10.010;2023-01-25T09:22:58;27.00;;;15.17;;
5279;SDS011;2663;53.588;10.010;2023-01-25T09:25:24;28.87;;;16.00;;
5279;SDS011;2663;53.588;10.010;2023-01-25T09:27:51;31.20;;;15.70;;
5279;SDS011;2663;53.588;10.010;2023-01-25T09:30:17;28.73;;;15.70;;
5279;SDS011;2663;53.588;10.010;2023-01-25T09:32:47;18.40;;;10.20;;
5279;SDS011;2663;53.588;10.010;2023-01-25T09:35:14;26.60;;;14.07;;
5279;SDS011;2663;53.588;10.010;2023-01-25T09:37:42;32.93;;;15.83;;
5279;SDS011;2663;53.588;10.010;2023-01-25T09:40:20;28.40;;;14.40;;
5279;SDS011;2663;53.588;10.010;2023-01-25T09:53:19;30.90;;;16.50;;
5279;SDS011;2663;53.588;10.010;2023-01-25T09:55:57;37.07;;;19.07;;
5279;SDS011;2663;53.588;10.010;2023-01-25T09:58:38;37.13;;;16.33;;
5279;SDS011;2663;53.588;10.010;2023-01-25T10:04:05;33.20;;;17.17;;
5279;SDS011;2663;53.588;10.010;2023-01-25T10:06:40;36.43;;;16.33;;
5279;SDS011;2663;53.588;10.010;2023-01-25T10:12:25;41.30;;;20.57;;
5279;SDS011;2663;53.588;10.010;2023-01-25T10:14:53;41.33;;;19.03;;
5279;SDS011;2663;53.588;10.010;2023-01-25T10:17:31;33.13;;;17.37;;
5279;SDS011;2663;53.588;10.010;2023-01-25T10:20:07;40.77;;;16.93;;
5279;SDS011;2663;53.588;10.010;2023-01-25T10:23:01;39.30;;;20.17;;
5279;SDS011;2663;53.588;10.010;2023-01-25T10:25:50;47.47;;;22.17;;
5279;SDS011;2663;53.588;10.010;2023-01-25T10:28:28;34.40;;;18.20;;
5279;SDS011;2663;53.588;10.010;2023-01-25T10:33:42;37.50;;;20.20;;
5279;SDS011;2663;53.588;10.010;2023-01-25T10:36:12;34.83;;;18.43;;
5279;SDS011;2663;53.588;10.010;2023-01-25T10:38:44;39.00;;;19.20;;
5279;SDS011;2663;53.588;10.010;2023-01-25T10:43:47;48.03;;;23.50;;
5279;SDS011;2663;53.588;10.010;2023-01-25T10:46:34;47.27;;;24.20;;
5279;SDS011;2663;53.588;10.010;2023-01-25T10:49:15;49.47;;;22.90;;
5279;SDS011;2663;53.588;10.010;2023-01-25T10:51:53;46.27;;;21.57;;
5279;SDS011;2663;53.588;10.010;2023-01-25T10:54:21;48.40;;;24.57;;
5279;SDS011;2663;53.588;10.010;2023-01-25T10:56:48;48.60;;;24.80;;
5279;SDS011;2663;53.588;10.010;2023-01-25T10:59:26;46.03;;;21.53;;
5279;SDS011;2663;53.588;10.010;2023-01-25T11:01:54;42.30;;;22.70;;
5279;SDS011;2663;53.588;10.010;2023-01-25T11:04:31;43.43;;;22.10;;
5279;SDS011;2663;53.588;10.010;2023-01-25T11:07:03;43.93;;;22.43;;
5279;SDS011;2663;53.588;10.010;2023-01-25T11:09:33;46.10;;;22.57;;
5279;SDS011;2663;53.588;10.010;2023-01-25T11:12:02;44.13;;;22.40;;
5279;SDS011;2663;53.588;10.010;2023-01-25T11:14:42;44.63;;;21.60;;
5279;SDS011;2663;53.588;10.010;2023-01-25T11:17:20;42.63;;;21.93;;
5279;SDS011;2663;53.588;10.010;2023-01-25T11:20:14;50.17;;;23.30;;
5279;SDS011;2663;53.588;10.010;2023-01-25T11:22:53;41.37;;;18.93;;
5279;SDS011;2663;53.588;10.010;2023-01-25T11:25:25;30.80;;;16.40;;
5279;SDS011;2663;53.588;10.010;2023-01-25T11:28:09;46.60;;;23.80;;
5279;SDS011;2663;53.588;10.010;2023-01-25T11:30:40;38.20;;;18.57;;
5279;SDS011;2663;53.588;10.010;2023-01-25T11:33:14;47.00;;;22.83;;
5279;SDS011;2663;53.588;10.010;2023-01-25T11:35:48;42.30;;;19.83;;
5279;SDS011;2663;53.588;10.010;2023-01-25T11:38:28;41.87;;;19.07;;
5279;SDS011;2663;53.588;10.010;2023-01-25T11:46:44;48.77;;;22.13;;
5279;SDS011;2663;53.588;10.010;2023-01-25T11:57:52;44.70;;;21.23;;
5279;SDS011;2663;53.588;10.010;2023-01-25T12:00:41;49.53;;;22.93;;
5279;SDS011;2663;53.588;10.010;2023-01-25T12:03:15;40.77;;;20.10;;
5279;SDS011;2663;53.588;10.010;2023-01-25T12:26:04;37.10;;;18.87;;
5279;SDS011;2663;53.588;10.010;2023-01-25T12:28:56;41.00;;;18.83;;
5279;SDS011;2663;53.588;10.010;2023-01-25T12:31:42;34.70;;;17.53;;
5279;SDS011;2663;53.588;10.010;2023-01-25T12:34:21;33.00;;;15.40;;
5279;SDS011;2663;53.588;10.010;2023-01-25T12:36:59;34.73;;;17.67;;
5279;SDS011;2663;53.588;10.010;2023-01-25T12:39:44;36.00;;;18.30;;
5279;SDS011;2663;53.588;10.010;2023-01-25T12:42:17;31.53;;;16.77;;
5279;SDS011;2663;53.588;10.010;2023-01-25T12:44:48;37.73;;;20.10;;
5279;SDS011;2663;53.588;10.010;2023-01-25T12:47:32;35.37;;;18.40;;
5279;SDS011;2663;53.588;10.010;2023-01-25T12:53:04;34.33;;;16.10;;
5279;SDS011;2663;53.588;10.010;2023-01-25T12:55:35;37.60;;;16.47;;
5279;SDS011;2663;53.588;10.010;2023-01-25T13:04:13;33.97;;;16.87;;
5279;SDS011;2663;53.588;10.010;2023-01-25T13:06:56;34.47;;;15.90;;
5279;SDS011;2663;53.588;10.010;2023-01-25T13:12:21;32.80;;;16.00;;
5279;SDS011;2663;53.588;10.010;2023-01-25T13:14:49;28.60;;;15.93;;
5279;SDS011;2663;53.588;10.010;2023-01-25T13:17:20;34.70;;;16.97;;
5279;SDS011;2663;53.588;10.010;2023-01-25T13:20:01;31.33;;;15.77;;
5279;SDS011;2663;53.588;10.010;2023-01-25T13:27:41;32.87;;;16.27;;
5279;SDS011;2663;53.588;10.010;2023-01-25T13:35:25;24.43;;;14.43;;
5279;SDS011;2663;53.588;10.010;2023-01-25T13:38:01;34.73;;;16.87;;
5279;SDS011;2663;53.588;10.010;2023-01-25T13:40:30;37.10;;;18.33;;
5279;SDS011;2663;53.588;10.010;2023-01-25T13:45:38;31.97;;;16.53;;
5279;SDS011;2663;53.588;10.010;2023-01-25T13:48:13;33.50;;;18.50;;
5279;SDS011;2663;53.588;10.010;2023-01-25T13:50:46;34.80;;;17.10;;
5279;SDS011;2663;53.588;10.010;2023-01-25T13:55:43;36.53;;;17.43;;
5279;SDS011;2663;53.588;10.010;2023-01-25T13:58:16;33.40;;;18.13;;
5279;SDS011;2663;53.588;10.010;2023-01-25T14:00:47;36.57;;;18.30;;
5279;SDS011;2663;53.588;10.010;2023-01-25T14:03:23;36.93;;;17.60;;
5279;SDS011;2663;53.588;10.010;2023-01-25T14:05:55;42.77;;;19.80;;
5279;SDS011;2663;53.588;10.010;2023-01-25T14:08:24;38.67;;;18.20;;
5279;SDS011;2663;53.588;10.010;2023-01-25T14:10:52;34.30;;;17.23;;
5279;SDS011;2663;53.588;10.010;2023-01-25T14:13:20;44.80;;;21.20;;
5279;SDS011;2663;53.588;10.010;2023-01-25T14:16:07;46.10;;;21.20;;
5279;SDS011;2663;53.588;10.010;2023-01-25T14:18:35;42.37;;;20.60;;
5279;SDS011;2663;53.588;10.010;2023-01-25T14:21:10;41.17;;;20.43;;
5279;SDS011;2663;53.588;10.010;2023-01-25T14:23:40;45.90;;;19.77;;
5279;SDS011;2663;53.588;10.010;2023-01-25T14:26:15;37.80;;;19.83;;
5279;SDS011;2663;53.588;10.010;2023-01-25T14:28:53;44.93;;;21.13;;
5279;SDS011;2663;53.588;10.010;2023-01-25T14:31:32;43.33;;;20.20;;
5279;SDS011;2663;53.588;10.010;2023-01-25T14:34:02;41.17;;;20.17;;
5279;SDS011;2663;53.588;10.010;2023-01-25T14:36:30;39.87;;;19.50;;
5279;SDS011;2663;53.588;10.010;2023-01-25T14:38:59;43.93;;;19.87;;
5279;SDS011;2663;53.588;10.010;2023-01-25T14:41:36;46.00;;;21.07;;
5279;SDS011;2663;53.588;10.010;2023-01-25T14:44:25;44.33;;;21.70;;
5279;SDS011;2663;53.588;10.010;2023-01-25T14:52:54;52.83;;;25.50;;
5279;SDS011;2663;53.588;10.010;2023-01-25T14:55:22;51.63;;;22.80;;
5279;SDS011;2663;53.588;10.010;2023-01-25T14:57:48;54.63;;;22.03;;
5279;SDS011;2663;53.588;10.010;2023-01-25T15:02:46;48.30;;;23.03;;
5279;SDS011;2663;53.588;10.010;2023-01-25T15:05:29;50.03;;;22.30;;
5279;SDS011;2663;53.588;10.010;2023-01-25T15:10:35;54.57;;;26.70;;
5279;SDS011;2663;53.588;10.010;2023-01-25T15:21:22;50.87;;;22.20;;
5279;SDS011;2663;53.588;10.010;2023-01-25T15:23:49;56.00;;;24.60;;
5279;SDS011;2663;53.588;10.010;2023-01-25T15:26:19;47.50;;;21.90;;
5279;SDS011;2663;53.588;10.010;2023-01-25T15:28:46;53.50;;;23.20;;
5279;SDS011;2663;53.588;10.010;2023-01-25T15:31:25;46.67;;;20.83;;
5279;SDS011;2663;53.588;10.010;2023-01-25T15:33:54;53.93;;;23.53;;
5279;SDS011;2663;53.588;10.010;2023-01-25T15:36:21;50.47;;;20.73;;
5279;SDS011;2663;53.588;10.010;2023-01-25T15:38:48;51.07;;;21.50;;
5279;SDS011;2663;53.588;10.010;2023-01-25T15:41:15;50.93;;;23.37;;
5279;SDS011;2663;53.588;10.010;2023-01-25T15:43:44;41.97;;;19.63;;
5279;SDS011;2663;53.588;10.010;2023-01-25T15:48:47;48.60;;;20.13;;
5279;SDS011;2663;53.588;10.010;2023-01-25T15:51:15;54.83;;;22.27;;
5279;SDS011;2663;53.588;10.010;2023-01-25T15:53:42;47.60;;;21.83;;
5279;SDS011;2663;53.588;10.010;2023-01-25T15:56:12;50.73;;;21.53;;
5279;SDS011;2663;53.588;10.010;2023-01-25T15:58:40;51.40;;;22.83;;
5279;SDS011;2663;53.588;10.010;2023-01-25T16:01:08;51.53;;;21.90;;
5279;SDS011;2663;53.588;10.010;2023-01-25T16:03:35;58.57;;;21.43;;
5279;SDS011;2663;53.588;10.010;2023-01-25T16:06:17;48.93;;;21.40;;
5279;SDS011;2663;53.588;10.010;2023-01-25T16:08:48;47.07;;;20.87;;
5279;SDS011;2663;53.588;10.010;2023-01-25T16:11:15;44.13;;;20.97;;
5279;SDS011;2663;53.588;10.010;2023-01-25T16:13:42;45.90;;;20.03;;
5279;SDS011;2663;53.588;10.010;2023-01-25T16:16:16;45.70;;;20.90;;
5279;SDS011;2663;53.588;10.010;2023-01-25T16:18:44;40.87;;;20.07;;
5279;SDS011;2663;53.588;10.010;2023-01-25T16:21:11;50.27;;;21.23;;
5279;SDS011;2663;53.588;10.010;2023-01-25T16:23:38;47.03;;;20.30;;
5279;SDS011;2663;53.588;10.010;2023-01-25T16:26:11;46.83;;;21.60;;
5279;SDS011;2663;53.588;10.010;2023-01-25T16:28:45;46.93;;;20.67;;
5279;SDS011;2663;53.588;10.010;2023-01-25T16:31:12;43.77;;;19.23;;
5279;SDS011;2663;53.588;10.010;2023-01-25T16:33:56;52.13;;;18.63;;
5279;SDS011;2663;53.588;10.010;2023-01-25T16:36:23;45.93;;;20.13;;
5279;SDS011;2663;53.588;10.010;2023-01-25T16:38:50;39.40;;;17.40;;
5279;SDS011;2663;53.588;10.010;2023-01-25T16:41:17;47.23;;;19.80;;
5279;SDS011;2663;53.588;10.010;2023-01-25T16:43:44;48.10;;;18.83;;
5279;SDS011;2663;53.588;10.010;2023-01-25T16:46:13;45.53;;;19.83;;
5279;SDS011;2663;53.588;10.010;2023-01-25T16:48:48;47.37;;;19.57;;
5279;SDS011;2663;53.588;10.010;2023-01-25T16:51:18;47.17;;;19.13;;
5279;SDS011;2663;53.588;10.010;2023-01-25T16:53:46;50.10;;;22.00;;
5279;SDS011;2663;53.588;10.010;2023-01-25T16:56:18;42.57;;;20.30;;